Terminal Aerodrome Forecast
Issued by NWS

Home | Current Version | Previous Version | Text Only | Print | Product List | Glossary On
Versions: 1 2 3 4 5 6 7 8 9 10 11 12 13 14 15 16 17 18 19 20 21 22 23 24 25 26
000
FTAK31 PAFA 211032 AAA
TAFAMC
TAF AMD
PAMC 211032Z 2111/2206 10006KT 1 1/2SM -SN BR OVC022
     FM211700 05007KT 5SM -SN BKN025 OVC050
     FM212200 05006KT P6SM VCSH SCT025 BKN050 BKN100=

USA.gov is the U.S. government's official web portal to all federal, state and local government web resources and services.